Main page
METAR-TAF:

METAR-TAF

Airports :

Ilo Airport

Ilo, Peru

latitude: 17-41-45S, longitude: 071-20-35W, elevation: 22 m

Current weather observation

The report was made 1 hour and 8 minutes ago, at 18:00 UTC
Wind 8 kt from the Southwest
Temperature 18°C
Humidity 73%
Pressure 1015 hPa
Visibility 10 km or more
no clouds below 1500 m and no cumulonimbus

METAR: SPLO 161800Z 22008KT CAVOK 18/13 Q1015 RMK PP000

Time: 14:08 (19:08 UTC)

Forecast

The report was made 2 hours and 8 minutes ago, at 17:00 UTC
Forecast valid from 16 at 18 UTC to 17 at 18 UTC
Wind 12 kt from the South
Visibility 10 km or more
no clouds below 1500 m and no cumulonimbus
From 16 at 2330 UTC
Wind 5 kt from the South/Southeast
Visibility 10 km or more
Overcast at a height of 2000 ft
From 17 at 1530 UTC
Wind 7 kt from the South/Southwest
Visibility 10 km or more
Scattered clouds at a height of 2500 ft

TAF: SPLO 161700Z 1618/1718 17012KT CAVOK TX20/1619Z TN14/1711Z FM162330 16005KT 9999 OVC020 FM171530 20007KT 9999 SCT025

Weather observations and forecasts of more than 4000 airports (METAR and TAF reports).

The available stations are represented by yellow and red dots on the map.

Hover mouse over dot to see the name of the station.

Then click to see weather observations and forecasts.

To change the map : click on the green buttons with a black cross to zoom in, on the green button with a dash to zoom out, or on the green arrows for adjacent maps.


METAR-TAF: